sensor_id;sensor_type;location;lat;lon;timestamp;temperature;humidity
5828;DHT22;42583;50.240;8.444;2022-08-19T00:09:52;19.90;68.00
5828;DHT22;42583;50.240;8.444;2022-08-19T00:24:54;19.80;69.00
5828;DHT22;42583;50.240;8.444;2022-08-19T00:39:55;19.70;71.00
5828;DHT22;42583;50.240;8.444;2022-08-19T00:54:57;19.70;71.40
5828;DHT22;42583;50.240;8.444;2022-08-19T01:09:57;19.70;71.70
5828;DHT22;42583;50.240;8.444;2022-08-19T01:25:00;19.70;72.20
5828;DHT22;42583;50.240;8.444;2022-08-19T01:40:01;19.60;72.60
5828;DHT22;42583;50.240;8.444;2022-08-19T01:55:03;19.60;73.20
5828;DHT22;42583;50.240;8.444;2022-08-19T02:10:10;19.60;74.30
5828;DHT22;42583;50.240;8.444;2022-08-19T02:25:12;19.60;75.00
5828;DHT22;42583;50.240;8.444;2022-08-19T02:40:13;19.40;76.00
5828;DHT22;42583;50.240;8.444;2022-08-19T02:55:15;19.30;76.80
5828;DHT22;42583;50.240;8.444;2022-08-19T03:10:16;19.20;78.50
5828;DHT22;42583;50.240;8.444;2022-08-19T03:25:16;19.10;79.70
5828;DHT22;42583;50.240;8.444;2022-08-19T03:40:17;18.90;82.60
5828;DHT22;42583;50.240;8.444;2022-08-19T03:55:19;18.80;84.00
5828;DHT22;42583;50.240;8.444;2022-08-19T04:10:19;18.70;87.20
5828;DHT22;42583;50.240;8.444;2022-08-19T04:25:20;18.60;87.90
5828;DHT22;42583;50.240;8.444;2022-08-19T04:40:20;18.50;88.80
5828;DHT22;42583;50.240;8.444;2022-08-19T04:55:54;18.50;89.40
5828;DHT22;42583;50.240;8.444;2022-08-19T05:10:55;18.50;90.90
5828;DHT22;42583;50.240;8.444;2022-08-19T05:25:57;18.60;90.50
5828;DHT22;42583;50.240;8.444;2022-08-19T05:40:58;18.80;90.60
5828;DHT22;42583;50.240;8.444;2022-08-19T05:56:04;19.20;90.50
5828;DHT22;42583;50.240;8.444;2022-08-19T06:11:24;19.60;90.00
5828;DHT22;42583;50.240;8.444;2022-08-19T06:26:25;20.00;88.70
5828;DHT22;42583;50.240;8.444;2022-08-19T06:41:27;20.30;87.20
5828;DHT22;42583;50.240;8.444;2022-08-19T06:56:29;20.40;86.10
5828;DHT22;42583;50.240;8.444;2022-08-19T07:11:32;20.40;84.90
5828;DHT22;42583;50.240;8.444;2022-08-19T07:26:38;20.40;84.60
5828;DHT22;42583;50.240;8.444;2022-08-19T07:41:39;21.20;83.60
5828;DHT22;42583;50.240;8.444;2022-08-19T07:56:40;22.10;81.20
5828;DHT22;42583;50.240;8.444;2022-08-19T08:26:52;23.50;76.00
5828;DHT22;42583;50.240;8.444;2022-08-19T08:42:21;23.70;75.00
5828;DHT22;42583;50.240;8.444;2022-08-19T08:57:35;23.80;72.90
5828;DHT22;42583;50.240;8.444;2022-08-19T09:12:47;23.30;73.90
5828;DHT22;42583;50.240;8.444;2022-08-19T09:27:55;23.70;73.50
5828;DHT22;42583;50.240;8.444;2022-08-19T09:42:57;24.60;71.00
5828;DHT22;42583;50.240;8.444;2022-08-19T09:58:03;25.20;68.90
5828;DHT22;42583;50.240;8.444;2022-08-19T10:13:03;26.40;63.10
5828;DHT22;42583;50.240;8.444;2022-08-19T10:28:05;26.70;59.30
5828;DHT22;42583;50.240;8.444;2022-08-19T10:43:06;27.80;57.60
5828;DHT22;42583;50.240;8.444;2022-08-19T10:58:14;27.60;55.50
5828;DHT22;42583;50.240;8.444;2022-08-19T11:13:15;27.50;54.10
5828;DHT22;42583;50.240;8.444;2022-08-19T11:28:16;28.20;52.30
5828;DHT22;42583;50.240;8.444;2022-08-19T11:43:17;28.60;51.00
5828;DHT22;42583;50.240;8.444;2022-08-19T11:58:18;29.50;48.90
5828;DHT22;42583;50.240;8.444;2022-08-19T12:13:18;30.10;46.30
5828;DHT22;42583;50.240;8.444;2022-08-19T12:28:26;31.00;44.00
5828;DHT22;42583;50.240;8.444;2022-08-19T12:43:26;32.00;42.10
5828;DHT22;42583;50.240;8.444;2022-08-19T12:58:28;32.40;40.90
5828;DHT22;42583;50.240;8.444;2022-08-19T13:13:29;32.30;39.50
5828;DHT22;42583;50.240;8.444;2022-08-19T13:28:30;33.00;37.80
5828;DHT22;42583;50.240;8.444;2022-08-19T13:43:51;34.90;35.30
5828;DHT22;42583;50.240;8.444;2022-08-19T13:58:52;35.20;33.10
5828;DHT22;42583;50.240;8.444;2022-08-19T14:13:53;35.40;33.10
5828;DHT22;42583;50.240;8.444;2022-08-19T14:28:54;35.30;32.70
5828;DHT22;42583;50.240;8.444;2022-08-19T14:43:57;37.80;29.80
5828;DHT22;42583;50.240;8.444;2022-08-19T14:58:58;38.70;29.90
5828;DHT22;42583;50.240;8.444;2022-08-19T15:14:01;40.20;27.60
5828;DHT22;42583;50.240;8.444;2022-08-19T15:29:03;37.80;28.00
5828;DHT22;42583;50.240;8.444;2022-08-19T15:44:11;33.50;30.20
5828;DHT22;42583;50.240;8.444;2022-08-19T15:59:12;31.10;33.00
5828;DHT22;42583;50.240;8.444;2022-08-19T16:14:33;29.70;34.40
5828;DHT22;42583;50.240;8.444;2022-08-19T16:29:34;28.70;35.30
5828;DHT22;42583;50.240;8.444;2022-08-19T16:44:38;28.20;35.60
5828;DHT22;42583;50.240;8.444;2022-08-19T16:59:40;27.80;35.90
5828;DHT22;42583;50.240;8.444;2022-08-19T17:14:40;27.50;36.70
5828;DHT22;42583;50.240;8.444;2022-08-19T17:29:41;27.00;37.70
5828;DHT22;42583;50.240;8.444;2022-08-19T17:44:41;26.60;38.40
5828;DHT22;42583;50.240;8.444;2022-08-19T17:59:42;26.20;39.00
5828;DHT22;42583;50.240;8.444;2022-08-19T18:14:43;25.70;40.40
5828;DHT22;42583;50.240;8.444;2022-08-19T18:29:44;25.20;40.50
5828;DHT22;42583;50.240;8.444;2022-08-19T18:44:45;24.70;40.80
5828;DHT22;42583;50.240;8.444;2022-08-19T19:00:05;24.20;41.00
5828;DHT22;42583;50.240;8.444;2022-08-19T19:15:06;23.70;41.50
5828;DHT22;42583;50.240;8.444;2022-08-19T19:30:07;23.30;42.20
5828;DHT22;42583;50.240;8.444;2022-08-19T19:45:08;22.90;43.00
5828;DHT22;42583;50.240;8.444;2022-08-19T20:00:09;22.60;43.40
5828;DHT22;42583;50.240;8.444;2022-08-19T20:15:12;22.20;44.60
5828;DHT22;42583;50.240;8.444;2022-08-19T20:30:16;22.00;45.00
5828;DHT22;42583;50.240;8.444;2022-08-19T20:45:19;21.80;45.30
5828;DHT22;42583;50.240;8.444;2022-08-19T21:00:21;21.60;46.20
5828;DHT22;42583;50.240;8.444;2022-08-19T21:15:21;21.40;46.50
5828;DHT22;42583;50.240;8.444;2022-08-19T21:30:24;21.20;46.90
5828;DHT22;42583;50.240;8.444;2022-08-19T21:45:24;21.10;47.50
5828;DHT22;42583;50.240;8.444;2022-08-19T22:00:26;21.00;47.80
5828;DHT22;42583;50.240;8.444;2022-08-19T22:15:28;21.00;48.70
5828;DHT22;42583;50.240;8.444;2022-08-19T22:30:30;20.90;48.90
5828;DHT22;42583;50.240;8.444;2022-08-19T22:45:32;20.80;50.00
5828;DHT22;42583;50.240;8.444;2022-08-19T23:00:33;20.70;50.50
5828;DHT22;42583;50.240;8.444;2022-08-19T23:15:34;20.50;51.00
5828;DHT22;42583;50.240;8.444;2022-08-19T23:30:37;20.40;51.70
5828;DHT22;42583;50.240;8.444;2022-08-19T23:45:40;20.20;53.40
